Time;durP1;ratioP1;P1;durP2;ratioP2;P2;SDS_P1;SDS_P2;PMS_P1;PMS_P2;Temp;Humidity;BMP_temperature;BMP_pressure;BME280_temperature;BME280_humidity;BME280_pressure;Samples;Min_cycle;Max_cycle;Signal;HPM_P1;HPM_P2
2023/01/22 00:00:57;;;;;;;16.20;10.60;;;;;;;-1.86;100.00;150897.88;5000076;28;20453;-75
2023/01/22 00:03:24;;;;;;;19.47;12.00;;;;;;;-1.85;100.00;150900.41;5004884;28;21010;-84
2023/01/22 00:05:51;;;;;;;14.23;9.50;;;;;;;-1.93;100.00;150879.91;5005307;28;20454;-84
2023/01/22 00:08:18;;;;;;;17.30;11.37;;;;;;;-1.93;100.00;150879.91;5012139;28;20443;-84
2023/01/22 00:10:49;;;;;;;18.37;10.80;;;;;;;-1.93;100.00;150879.91;5040659;28;20541;-84
2023/01/22 00:13:15;;;;;;;12.83;9.60;;;;;;;-1.95;100.00;150876.09;5006403;28;20547;-84
2023/01/22 00:15:42;;;;;;;17.77;11.10;;;;;;;-1.93;100.00;150879.91;5027621;28;20471;-85
2023/01/22 00:18:10;;;;;;;14.47;10.53;;;;;;;-1.97;100.00;150869.69;4993976;28;20458;-84
2023/01/22 00:20:37;;;;;;;17.07;10.00;;;;;;;-1.93;100.00;150881.19;5027574;28;20491;-85
2023/01/22 00:23:04;;;;;;;14.97;10.23;;;;;;;-1.94;100.00;150877.38;5002478;28;20447;-84
2023/01/22 00:25:30;;;;;;;18.70;10.87;;;;;;;-1.95;100.00;150876.09;5012360;28;20457;-84
2023/01/22 00:27:57;;;;;;;14.00;9.33;;;;;;;-1.93;100.00;150881.19;5013031;28;20980;-84
2023/01/22 00:30:23;;;;;;;15.87;11.20;;;;;;;-1.91;100.00;150885.06;5009711;28;20827;-84
2023/01/22 00:32:51;;;;;;;19.40;11.50;;;;;;;-1.93;100.00;150881.19;4986476;28;20456;-74
2023/01/22 00:35:19;;;;;;;14.30;9.60;;;;;;;-1.93;100.00;150879.91;5025448;28;20819;-74
2023/01/22 00:37:46;;;;;;;15.80;10.07;;;;;;;-1.85;100.00;150901.69;5032047;28;20537;-75
2023/01/22 00:40:14;;;;;;;14.40;10.00;;;;;;;-1.85;100.00;150900.41;5009647;28;20455;-75
2023/01/22 00:42:40;;;;;;;14.73;10.13;;;;;;;-1.87;100.00;150895.28;4999811;28;20558;-75
2023/01/22 00:45:08;;;;;;;14.00;9.13;;;;;;;-1.84;100.00;150902.97;4987394;28;20482;-74
2023/01/22 00:47:35;;;;;;;17.50;10.77;;;;;;;-1.84;100.00;150902.97;5007701;28;20458;-74
2023/01/22 00:50:02;;;;;;;19.40;11.63;;;;;;;-1.83;100.00;150905.56;4986501;28;20452;-75
2023/01/22 00:52:30;;;;;;;16.73;10.20;;;;;;;-1.83;100.00;150906.81;4991880;28;20451;-74
2023/01/22 00:54:56;;;;;;;15.40;9.90;;;;;;;-1.81;100.00;150909.38;4998138;28;20523;-74
2023/01/22 00:57:23;;;;;;;17.60;9.87;;;;;;;-1.78;100.00;150918.38;5007970;28;20460;-74
2023/01/22 00:59:52;;;;;;;15.27;10.47;;;;;;;-1.75;100.00;150926.06;4984601;28;20448;-75
2023/01/22 01:02:18;;;;;;;15.57;10.57;;;;;;;-1.80;100.00;150911.97;5003033;28;20455;-74
2023/01/22 01:04:45;;;;;;;17.27;11.10;;;;;;;-1.78;100.00;150918.38;4989676;28;20436;-74
2023/01/22 01:07:12;;;;;;;14.53;10.43;;;;;;;-1.80;100.00;150913.22;4988688;28;20495;-74
2023/01/22 01:09:40;;;;;;;17.93;10.43;;;;;;;-1.78;100.00;150917.09;4986333;28;20450;-74
2023/01/22 01:12:08;;;;;;;14.50;10.60;;;;;;;-1.78;100.00;150917.09;5004685;28;20547;-75
2023/01/22 01:14:34;;;;;;;19.00;11.00;;;;;;;-1.78;100.00;150917.09;4995245;28;20529;-74
2023/01/22 01:17:03;;;;;;;15.10;10.63;;;;;;;-1.79;100.00;150915.78;4987224;28;20464;-74
2023/01/22 01:19:29;;;;;;;15.97;10.77;;;;;;;-1.77;100.00;150919.66;5002244;28;20583;-74
2023/01/22 01:21:56;;;;;;;16.63;10.03;;;;;;;-1.78;100.00;150918.38;4976719;28;20538;-74
2023/01/22 01:24:23;;;;;;;17.00;10.33;;;;;;;-1.75;100.00;150926.06;5005657;28;21138;-74
2023/01/22 01:26:51;;;;;;;18.47;11.27;;;;;;;-1.75;100.00;150926.06;4998935;28;20946;-74
2023/01/22 01:29:18;;;;;;;12.27;9.30;;;;;;;-1.71;100.00;150936.28;5003158;28;20447;-75
2023/01/22 01:31:45;;;;;;;15.03;10.83;;;;;;;-1.72;100.00;150933.72;4993564;28;20467;-74
2023/01/22 01:34:12;;;;;;;13.73;10.60;;;;;;;-1.72;100.00;150933.72;4999120;28;20839;-74
2023/01/22 01:36:39;;;;;;;16.17;10.13;;;;;;;-1.72;100.00;150932.47;4999356;28;20467;-74
2023/01/22 01:39:05;;;;;;;15.67;10.83;;;;;;;-1.72;100.00;150932.47;5002945;28;20538;-74
2023/01/22 01:41:32;;;;;;;17.17;11.07;;;;;;;-1.71;100.00;150936.28;5004185;28;20457;-74
2023/01/22 01:44:13;;;;;;;14.37;10.50;;;;;;;-1.69;100.00;150940.13;5000872;28;20488;-75
2023/01/22 01:46:44;;;;;;;16.00;11.23;;;;;;;-1.67;100.00;150946.56;4982677;28;20452;-75
2023/01/22 01:49:18;;;;;;;16.07;10.63;;;;;;;-1.67;100.00;150946.56;4993570;28;20871;-74
2023/01/22 01:51:45;;;;;;;14.53;10.57;;;;;;;-1.67;100.00;150946.56;4996634;28;20945;-75
2023/01/22 01:54:12;;;;;;;16.57;10.40;;;;;;;-1.68;100.00;150943.97;5001608;28;20599;-75
2023/01/22 01:56:41;;;;;;;16.93;11.40;;;;;;;-1.71;100.00;150936.28;5007357;28;20483;-75
2023/01/22 01:59:12;;;;;;;14.67;9.67;;;;;;;-1.65;100.00;150951.69;5001795;28;20467;-75
2023/01/22 02:01:39;;;;;;;13.83;10.03;;;;;;;-1.66;100.00;150949.09;4992790;28;20467;-75
2023/01/22 02:04:07;;;;;;;18.23;10.70;;;;;;;-1.67;100.00;150946.56;4986483;28;20552;-75
2023/01/22 02:06:33;;;;;;;15.00;10.40;;;;;;;-1.64;100.00;150954.22;5025073;28;20876;-75
2023/01/22 02:09:01;;;;;;;13.77;9.50;;;;;;;-1.64;100.00;150952.97;5022743;28;21001;-75
2023/01/22 02:11:28;;;;;;;14.07;10.20;;;;;;;-1.62;100.00;150958.09;5029506;28;20500;-75
2023/01/22 02:14:00;;;;;;;15.17;11.10;;;;;;;-1.63;100.00;150956.78;5036510;28;20979;-75
2023/01/22 02:16:28;;;;;;;17.60;10.97;;;;;;;-1.60;100.00;150964.50;5009102;28;20535;-75
2023/01/22 02:18:55;;;;;;;17.17;11.67;;;;;;;-1.59;100.00;150965.78;5001107;28;21034;-75
2023/01/22 02:21:35;;;;;;;15.43;11.00;;;;;;;-1.60;100.00;150964.50;4981620;28;20549;-75
2023/01/22 02:24:03;;;;;;;15.07;10.80;;;;;;;-1.59;100.00;150967.03;5003957;28;20804;-75
2023/01/22 02:26:30;;;;;;;15.57;9.70;;;;;;;-1.60;100.00;150964.50;5032333;28;20454;-75
2023/01/22 02:28:57;;;;;;;13.70;9.60;;;;;;;-1.59;100.00;150965.78;4985806;28;20952;-75
2023/01/22 02:31:27;;;;;;;13.93;9.37;;;;;;;-1.61;100.00;150961.91;4994525;28;20692;-75
2023/01/22 02:33:54;;;;;;;17.60;10.80;;;;;;;-1.58;100.00;150968.31;4990175;28;20530;-75
2023/01/22 02:36:22;;;;;;;16.63;11.20;;;;;;;-1.56;100.00;150974.72;4985768;28;20500;-75
2023/01/22 02:38:50;;;;;;;14.87;11.20;;;;;;;-1.55;100.00;150976.00;4983872;28;20810;-75
2023/01/22 02:41:17;;;;;;;17.13;10.90;;;;;;;-1.52;100.00;150985.00;4989830;28;20817;-75
2023/01/22 02:43:43;;;;;;;19.70;11.97;;;;;;;-1.59;100.00;150965.78;5024777;28;20574;-75
2023/01/22 02:46:10;;;;;;;13.80;10.07;;;;;;;-1.60;100.00;150964.50;5010356;28;20791;-75
2023/01/22 02:48:37;;;;;;;16.73;10.43;;;;;;;-1.53;100.00;150982.41;4997494;28;20494;-75
2023/01/22 02:51:04;;;;;;;15.57;10.60;;;;;;;-1.54;100.00;150978.59;5033736;28;20488;-75
2023/01/22 02:53:31;;;;;;;15.53;10.50;;;;;;;-1.52;100.00;150983.72;4979963;28;20842;-75
2023/01/22 02:56:00;;;;;;;17.00;10.90;;;;;;;-1.56;100.00;150974.72;5002584;28;20487;-75
2023/01/22 02:58:27;;;;;;;18.13;11.53;;;;;;;-1.53;100.00;150981.13;4994797;28;20448;-75
2023/01/22 03:00:53;;;;;;;17.17;10.90;;;;;;;-1.54;100.00;150979.88;5004981;28;20509;-75
2023/01/22 03:03:20;;;;;;;16.20;11.07;;;;;;;-1.53;100.00;150982.41;5011880;28;20457;-75
2023/01/22 03:05:48;;;;;;;17.27;9.67;;;;;;;-1.54;100.00;150979.88;4990689;28;20457;-75
2023/01/22 03:08:15;;;;;;;16.97;10.63;;;;;;;-1.55;100.00;150977.28;4996160;28;20808;-75
2023/01/22 03:10:41;;;;;;;13.33;10.40;;;;;;;-1.57;100.00;150970.91;5003259;28;20453;-75
2023/01/22 03:21:24;;;;;;;17.50;11.03;;;;;;;-1.49;100.00;150992.69;5015329;28;20513;-75
2023/01/22 03:23:52;;;;;;;14.23;10.10;;;;;;;-1.52;100.00;150983.72;4999771;28;20456;-75
2023/01/22 03:26:20;;;;;;;19.40;11.20;;;;;;;-1.53;100.00;150982.41;5005840;28;20819;-75
2023/01/22 03:28:49;;;;;;;16.70;11.70;;;;;;;-1.53;100.00;150982.41;4995643;28;20842;-75
2023/01/22 03:31:16;;;;;;;16.63;11.43;;;;;;;-1.54;100.00;150979.88;5012362;28;20919;-75
2023/01/22 03:33:43;;;;;;;17.20;11.30;;;;;;;-1.53;100.00;150982.41;5033109;28;20452;-75
2023/01/22 03:36:13;;;;;;;17.30;11.10;;;;;;;-1.52;100.00;150985.00;5005820;28;20735;-75
2023/01/22 03:38:44;;;;;;;17.10;10.60;;;;;;;-1.48;100.00;150993.94;5008894;28;20447;-75
2023/01/22 03:41:16;;;;;;;18.20;12.17;;;;;;;-1.51;100.00;150987.53;5003913;28;20452;-75
2023/01/22 03:43:45;;;;;;;16.67;10.90;;;;;;;-1.49;100.00;150992.69;4983401;28;20526;-75
2023/01/22 03:46:18;;;;;;;16.57;11.37;;;;;;;-1.51;100.00;150987.53;4995339;28;20960;-75
2023/01/22 03:48:51;;;;;;;15.77;11.50;;;;;;;-1.51;100.00;150987.53;5027373;28;20470;-74
2023/01/22 03:51:18;;;;;;;15.90;10.60;;;;;;;-1.48;100.00;150995.22;5004982;28;20464;-75
2023/01/22 03:53:45;;;;;;;17.37;11.23;;;;;;;-1.48;100.00;150993.94;5002764;28;20838;-75
2023/01/22 03:56:13;;;;;;;16.90;10.83;;;;;;;-1.46;100.00;151000.38;5007578;28;20479;-75
2023/01/22 03:58:40;;;;;;;18.20;11.03;;;;;;;-1.46;100.00;151000.38;4993567;28;20502;-74
2023/01/22 04:01:09;;;;;;;15.40;11.33;;;;;;;-1.44;100.00;151005.50;5007935;28;21040;-74
2023/01/22 04:03:37;;;;;;;17.53;11.50;;;;;;;-1.43;100.00;151008.03;4993106;28;20527;-75
2023/01/22 04:06:06;;;;;;;18.20;12.10;;;;;;;-1.49;100.00;150992.69;4989030;28;20998;-75
2023/01/22 04:08:34;;;;;;;16.53;11.50;;;;;;;-1.48;100.00;150995.22;5022117;28;20466;-75
2023/01/22 04:11:01;;;;;;;17.77;11.60;;;;;;;-1.43;100.00;151008.03;5004041;28;20442;-75
2023/01/22 04:13:31;;;;;;;15.60;10.60;;;;;;;-1.45;100.00;151001.63;5001875;28;20881;-75
2023/01/22 04:15:57;;;;;;;16.40;10.80;;;;;;;-1.44;100.00;151005.50;4990246;28;20508;-75
2023/01/22 04:18:44;;;;;;;17.07;11.67;;;;;;;-1.44;100.00;151005.50;5006698;28;20522;-75
2023/01/22 04:21:29;;;;;;;15.47;10.90;;;;;;;-1.43;100.00;151008.03;5037200;28;20529;-75
2023/01/22 04:23:58;;;;;;;19.20;11.43;;;;;;;-1.41;100.00;151013.19;5008948;28;20455;-75
2023/01/22 04:26:25;;;;;;;17.80;11.73;;;;;;;-1.41;100.00;151013.19;5037628;28;20458;-75
2023/01/22 04:28:54;;;;;;;18.90;10.90;;;;;;;-1.46;100.00;151000.38;5038045;28;20470;-75
2023/01/22 04:31:22;;;;;;;14.77;10.90;;;;;;;-1.44;100.00;151005.50;4992063;28;20561;-75
2023/01/22 04:34:07;;;;;;;16.13;10.93;;;;;;;-1.45;100.00;151002.91;4975783;28;20453;-75
2023/01/22 04:36:41;;;;;;;16.50;11.27;;;;;;;-1.43;100.00;151006.78;4989648;28;20476;-75
2023/01/22 04:39:08;;;;;;;17.97;11.50;;;;;;;-1.44;100.00;151004.22;5004468;28;20447;-75
2023/01/22 04:41:35;;;;;;;12.80;9.70;;;;;;;-1.43;100.00;151008.03;4978959;28;20862;-75
2023/01/22 04:44:02;;;;;;;18.40;10.73;;;;;;;-1.43;100.00;151008.03;5008706;28;20510;-76
2023/01/22 04:46:31;;;;;;;15.50;11.07;;;;;;;-1.41;100.00;151011.91;4998900;28;20570;-75
2023/01/22 04:48:57;;;;;;;15.33;10.83;;;;;;;-1.40;100.00;151015.72;4993587;28;20439;-75
2023/01/22 04:51:26;;;;;;;17.00;11.23;;;;;;;-1.38;100.00;151019.59;5006356;28;20457;-74
2023/01/22 04:53:53;;;;;;;14.90;10.37;;;;;;;-1.35;100.00;151028.53;4990179;28;20461;-75
2023/01/22 04:56:20;;;;;;;16.57;11.57;;;;;;;-1.35;100.00;151028.53;4999203;28;20567;-75
2023/01/22 04:58:48;;;;;;;17.30;11.23;;;;;;;-1.35;100.00;151028.53;5005286;28;20560;-74
2023/01/22 05:01:15;;;;;;;19.63;10.90;;;;;;;-1.37;100.00;151022.13;4985720;28;20534;-74
2023/01/22 05:03:41;;;;;;;15.97;10.10;;;;;;;-1.35;100.00;151027.28;4984929;28;20439;-74
2023/01/22 05:06:09;;;;;;;17.97;10.97;;;;;;;-1.38;100.00;151020.84;4984408;28;20460;-75
2023/01/22 05:08:41;;;;;;;18.73;10.53;;;;;;;-1.36;100.00;151024.72;4992840;28;20558;-75
2023/01/22 05:11:10;;;;;;;14.53;11.00;;;;;;;-1.36;100.00;151024.72;4981010;28;20603;-75
2023/01/22 05:13:50;;;;;;;16.47;11.67;;;;;;;-1.35;100.00;151028.53;5000029;28;20455;-74
2023/01/22 05:16:18;;;;;;;19.50;12.07;;;;;;;-1.37;100.00;151023.44;4998359;28;20475;-75
2023/01/22 05:18:47;;;;;;;18.17;12.43;;;;;;;-1.38;100.00;151020.84;5021766;28;20452;-75
2023/01/22 05:21:14;;;;;;;17.40;11.20;;;;;;;-1.36;100.00;151026.00;5036424;28;20461;-75
2023/01/22 05:23:43;;;;;;;17.77;10.97;;;;;;;-1.32;100.00;151036.22;5001933;28;20458;-75
2023/01/22 05:26:10;;;;;;;16.60;10.33;;;;;;;-1.35;100.00;151028.53;5019565;28;20463;-75
2023/01/22 05:28:41;;;;;;;17.30;11.20;;;;;;;-1.32;100.00;151034.94;5017110;28;20437;-75
2023/01/22 05:31:19;;;;;;;16.80;11.57;;;;;;;-1.32;100.00;151034.94;4995322;28;20464;-75
2023/01/22 05:34:06;;;;;;;19.40;10.77;;;;;;;-1.34;100.00;151029.84;5013956;28;20678;-75
2023/01/22 05:36:33;;;;;;;17.80;11.37;;;;;;;-1.32;100.00;151036.22;4987886;28;20472;-75
2023/01/22 05:39:07;;;;;;;17.10;11.10;;;;;;;-1.36;100.00;151026.00;4992498;28;20459;-75
2023/01/22 05:41:34;;;;;;;18.00;11.97;;;;;;;-1.32;100.00;151036.22;4986047;28;20830;-75
2023/01/22 05:44:01;;;;;;;21.50;11.30;;;;;;;-1.33;100.00;151033.69;5000819;28;20499;-75
2023/01/22 05:46:29;;;;;;;16.27;10.27;;;;;;;-1.31;100.00;151037.53;5000939;28;20446;-75
2023/01/22 05:49:13;;;;;;;15.33;10.70;;;;;;;-1.29;100.00;151043.94;4981261;28;20460;-76
2023/01/22 05:51:41;;;;;;;16.90;10.97;;;;;;;-1.35;100.00;151028.53;5004560;28;20464;-75
2023/01/22 05:54:09;;;;;;;18.63;11.30;;;;;;;-1.34;100.00;151029.84;5011609;28;20442;-75
2023/01/22 05:56:38;;;;;;;14.27;10.20;;;;;;;-1.37;100.00;151023.44;4997822;28;20490;-75
2023/01/22 05:59:05;;;;;;;18.43;11.57;;;;;;;-1.32;100.00;151034.94;5004062;28;20546;-75
2023/01/22 06:01:32;;;;;;;16.67;10.27;;;;;;;-1.32;100.00;151036.22;5001516;28;20452;-75
2023/01/22 06:03:59;;;;;;;16.10;12.13;;;;;;;-1.30;100.00;151040.13;4987818;28;20451;-75
2023/01/22 06:06:26;;;;;;;15.93;10.90;;;;;;;-1.29;100.00;151043.94;4984457;28;20774;-75
2023/01/22 06:08:55;;;;;;;17.13;10.93;;;;;;;-1.32;100.00;151036.22;5018383;28;20461;-75
2023/01/22 06:11:24;;;;;;;19.47;12.13;;;;;;;-1.29;100.00;151042.66;5025930;28;20459;-75
2023/01/22 06:13:51;;;;;;;15.17;10.20;;;;;;;-1.28;100.00;151045.22;5041279;28;20492;-75
2023/01/22 06:16:22;;;;;;;18.60;11.80;;;;;;;-1.26;100.00;151050.34;4987841;28;20491;-75
2023/01/22 06:19:12;;;;;;;17.33;11.50;;;;;;;-1.26;100.00;151050.34;4991186;28;20451;-75
2023/01/22 06:21:53;;;;;;;17.27;10.47;;;;;;;-1.26;100.00;151050.34;5003429;28;20459;-75
2023/01/22 06:24:25;;;;;;;18.10;11.20;;;;;;;-1.25;100.00;151054.22;5008350;28;20457;-75
2023/01/22 06:26:53;;;;;;;15.97;11.70;;;;;;;-1.24;100.00;151056.75;4990291;28;20466;-75
2023/01/22 06:29:21;;;;;;;13.30;10.20;;;;;;;-1.19;100.00;151068.28;5026538;28;20459;-75
2023/01/22 06:31:48;;;;;;;15.07;10.73;;;;;;;-1.19;100.00;151068.28;5007764;28;20465;-75
2023/01/22 06:34:18;;;;;;;18.53;11.63;;;;;;;-1.19;100.00;151068.28;4990026;28;20479;-75
2023/01/22 06:36:45;;;;;;;16.17;9.80;;;;;;;-1.23;100.00;151059.34;5000204;28;20570;-75
2023/01/22 06:39:14;;;;;;;18.20;11.10;;;;;;;-1.19;100.00;151068.28;5024065;28;20447;-75
2023/01/22 06:41:56;;;;;;;17.70;10.87;;;;;;;-1.23;100.00;151059.34;4982732;28;20468;-74
2023/01/22 06:44:23;;;;;;;16.67;11.23;;;;;;;-1.25;100.00;151052.91;4990269;28;20604;-75
2023/01/22 06:46:51;;;;;;;17.87;11.50;;;;;;;-1.23;100.00;151059.34;4982402;28;20602;-75
2023/01/22 06:49:24;;;;;;;19.07;12.00;;;;;;;-1.25;100.00;151052.91;5041337;28;21006;-75
2023/01/22 06:51:51;;;;;;;19.17;11.50;;;;;;;-1.24;100.00;151056.75;5000585;28;20474;-75
2023/01/22 06:54:18;;;;;;;17.20;11.20;;;;;;;-1.25;100.00;151054.22;5007210;28;20458;-75
2023/01/22 06:56:45;;;;;;;17.43;11.70;;;;;;;-1.28;100.00;151046.50;5000669;28;20480;-75
2023/01/22 06:59:15;;;;;;;18.10;12.10;;;;;;;-1.26;100.00;151050.34;5004968;28;20487;-75
2023/01/22 07:01:41;;;;;;;18.90;12.60;;;;;;;-1.26;100.00;151050.34;5035944;28;20511;-75
2023/01/22 07:04:09;;;;;;;16.73;10.50;;;;;;;-1.26;100.00;151050.34;5007146;28;20967;-75
2023/01/22 07:06:36;;;;;;;16.67;10.67;;;;;;;-1.27;100.00;151049.06;5041912;28;20883;-75
2023/01/22 07:09:02;;;;;;;17.97;11.67;;;;;;;-1.26;100.00;151051.63;5005826;28;20444;-75
2023/01/22 07:11:29;;;;;;;17.10;11.00;;;;;;;-1.24;100.00;151056.75;5006262;28;20462;-75
2023/01/22 07:13:56;;;;;;;17.40;11.87;;;;;;;-1.23;100.00;151059.34;5008502;28;20518;-74
2023/01/22 07:16:24;;;;;;;19.90;12.00;;;;;;;-1.22;100.00;151061.88;5036341;28;21000;-74
2023/01/22 07:18:51;;;;;;;19.03;12.60;;;;;;;-1.18;100.00;151070.84;5003055;28;20884;-74
2023/01/22 07:21:17;;;;;;;18.73;12.43;;;;;;;-1.19;100.00;151067.03;5003964;28;20456;-74
2023/01/22 07:23:44;;;;;;;23.73;14.87;;;;;;;-1.19;100.00;151067.03;5002452;28;20510;-75
2023/01/22 07:26:11;;;;;;;22.50;13.83;;;;;;;-1.19;100.00;151068.28;4996367;28;20456;-74
2023/01/22 07:28:38;;;;;;;26.23;16.40;;;;;;;-1.18;100.00;151069.56;4995151;28;20453;-75
2023/01/22 07:31:09;;;;;;;23.60;14.27;;;;;;;-1.18;100.00;151070.84;5002827;28;20844;-74
2023/01/22 07:33:37;;;;;;;25.90;16.40;;;;;;;-1.15;100.00;151078.56;5003370;28;20535;-74
2023/01/22 07:36:05;;;;;;;21.90;15.47;;;;;;;-1.13;100.00;151082.38;5003706;28;20456;-74
2023/01/22 07:38:31;;;;;;;22.47;14.70;;;;;;;-1.12;100.00;151086.25;5005573;28;20490;-73
2023/01/22 07:41:02;;;;;;;19.97;12.60;;;;;;;-1.08;100.00;151095.19;5039698;28;20499;-73
2023/01/22 07:43:29;;;;;;;16.80;11.90;;;;;;;-1.11;100.00;151087.53;5007807;28;20547;-75
2023/01/22 07:45:57;;;;;;;16.20;11.53;;;;;;;-1.12;100.00;151084.97;5006095;28;20553;-75
2023/01/22 07:48:24;;;;;;;17.73;11.50;;;;;;;-1.11;100.00;151087.53;4975414;28;20479;-75
2023/01/22 07:50:52;;;;;;;22.07;11.30;;;;;;;-1.08;100.00;151095.19;5029537;28;20464;-75
2023/01/22 07:53:19;;;;;;;15.73;11.40;;;;;;;-1.06;100.00;151100.34;5015596;28;20457;-75
2023/01/22 07:55:45;;;;;;;14.80;11.47;;;;;;;-1.05;100.00;151104.19;5034999;28;20553;-75
2023/01/22 07:58:12;;;;;;;16.10;11.20;;;;;;;-1.02;100.00;151110.59;5005401;28;20566;-74
2023/01/22 08:00:39;;;;;;;18.47;11.47;;;;;;;-1.05;100.00;151104.19;5035325;28;20464;-74
2023/01/22 08:03:09;;;;;;;19.40;12.40;;;;;;;-1.04;100.00;151105.47;5006876;28;20482;-74
2023/01/22 08:05:36;;;;;;;17.60;11.30;;;;;;;-1.01;100.00;151113.16;5000948;28;20542;-75
2023/01/22 08:08:04;;;;;;;15.90;11.93;;;;;;;-1.01;100.00;151113.16;5040362;28;20447;-75
2023/01/22 08:10:31;;;;;;;18.10;11.97;;;;;;;-1.02;100.00;151111.88;4995533;28;20495;-75
2023/01/22 08:12:58;;;;;;;19.33;13.23;;;;;;;-0.97;100.00;151123.41;5035113;28;20538;-74
2023/01/22 08:15:24;;;;;;;18.90;11.40;;;;;;;-0.96;100.00;151125.97;5016708;28;20457;-74
2023/01/22 08:17:51;;;;;;;18.37;13.90;;;;;;;-1.01;100.00;151113.16;4985083;28;20483;-74
2023/01/22 08:20:18;;;;;;;17.87;11.67;;;;;;;-1.00;100.00;151115.69;5020150;28;20944;-74
2023/01/22 08:22:45;;;;;;;17.67;11.87;;;;;;;-0.95;100.00;151129.81;5002529;28;20488;-74
2023/01/22 08:25:13;;;;;;;16.43;11.37;;;;;;;-0.94;100.00;151132.38;5003427;28;22284;-75
2023/01/22 08:27:40;;;;;;;19.30;13.30;;;;;;;-0.92;100.00;151137.50;5006295;28;20452;-75
2023/01/22 08:30:10;;;;;;;18.13;11.93;;;;;;;-0.97;100.00;151123.41;5008649;28;20460;-75
2023/01/22 08:32:37;;;;;;;16.27;11.00;;;;;;;-0.94;100.00;151131.09;5005411;28;20461;-75
2023/01/22 08:35:04;;;;;;;16.80;11.53;;;;;;;-0.94;100.00;151131.09;4999962;28;20466;-84
2023/01/22 08:37:31;;;;;;;19.60;11.83;;;;;;;-0.94;100.00;151132.38;5034311;28;20476;-84
2023/01/22 08:39:57;;;;;;;16.37;11.30;;;;;;;-0.93;100.00;151133.69;5004812;28;20506;-84
2023/01/22 08:42:25;;;;;;;18.13;12.07;;;;;;;-0.91;100.00;151138.78;5008039;28;20490;-84
2023/01/22 08:44:52;;;;;;;17.10;11.87;;;;;;;-0.90;100.00;151141.38;5002572;28;20587;-84
2023/01/22 08:47:19;;;;;;;22.97;13.30;;;;;;;-0.89;100.00;151143.91;5009347;28;20457;-83
2023/01/22 08:49:46;;;;;;;31.60;17.77;;;;;;;-0.87;100.00;151149.03;4987036;28;20539;-84
2023/01/22 08:52:12;;;;;;;21.70;12.67;;;;;;;-0.86;100.00;151151.63;5006791;28;20632;-84
2023/01/22 08:54:39;;;;;;;21.10;12.53;;;;;;;-0.87;100.00;151149.03;5021947;28;20453;-84
2023/01/22 08:57:05;;;;;;;20.20;12.23;;;;;;;-0.83;100.00;151159.31;5010897;28;20511;-84
2023/01/22 08:59:33;;;;;;;18.53;11.87;;;;;;;-0.81;100.00;151164.44;5036136;28;20476;-85
2023/01/22 09:02:01;;;;;;;23.97;14.63;;;;;;;-0.79;100.00;151170.84;5005537;28;20491;-83
2023/01/22 09:04:28;;;;;;;21.73;13.33;;;;;;;-0.76;100.00;151177.25;5006367;28;20541;-84
2023/01/22 09:06:55;;;;;;;26.50;14.40;;;;;;;-0.76;100.00;151177.25;5036639;28;20784;-84
2023/01/22 09:09:21;;;;;;;22.70;14.00;;;;;;;-0.77;100.00;151174.72;5035203;28;20540;-84
2023/01/22 09:11:48;;;;;;;22.47;14.67;;;;;;;-0.73;100.00;151186.25;5003689;28;20518;-84
2023/01/22 09:14:15;;;;;;;19.33;13.27;;;;;;;-0.71;100.00;151191.34;5004369;28;20869;-84
2023/01/22 09:16:43;;;;;;;20.60;13.57;;;;;;;-0.70;100.00;151192.66;5005905;28;20516;-84
2023/01/22 09:19:10;;;;;;;19.57;12.50;;;;;;;-0.71;100.00;151190.06;5019442;28;20560;-84
2023/01/22 09:21:37;;;;;;;20.47;12.80;;;;;;;-0.71;100.00;151191.34;5041552;28;20514;-85
2023/01/22 09:24:04;;;;;;;21.93;13.67;;;;;;;-0.65;100.00;151205.47;5000071;28;20460;-84
2023/01/22 09:26:32;;;;;;;20.20;12.90;;;;;;;-0.66;100.00;151204.19;5022515;28;20551;-84
2023/01/22 09:28:59;;;;;;;18.60;13.77;;;;;;;-0.62;100.00;151214.47;5013488;28;20456;-84
2023/01/22 09:31:26;;;;;;;20.13;13.47;;;;;;;-0.54;100.00;151232.41;5035048;28;20533;-84
2023/01/22 09:33:54;;;;;;;22.73;12.63;;;;;;;-0.54;100.00;151233.69;4982423;28;20461;-83
2023/01/22 09:36:21;;;;;;;18.33;12.17;;;;;;;-0.48;100.00;151249.09;5006153;28;20540;-84
2023/01/22 09:38:48;;;;;;;22.60;13.50;;;;;;;-0.45;100.00;151256.75;5001788;28;20498;-83
2023/01/22 09:41:20;;;;;;;19.53;13.17;;;;;;;-0.42;100.00;151264.47;5005857;28;20563;-83
2023/01/22 09:43:51;;;;;;;19.03;12.93;;;;;;;-0.50;100.00;151242.69;5001712;28;20570;-83
2023/01/22 09:46:22;;;;;;;21.40;12.23;;;;;;;-0.41;100.00;151265.75;5002206;28;20481;-82
2023/01/22 09:48:53;;;;;;;24.00;14.67;;;;;;;-0.48;100.00;151249.09;5020369;28;20464;-82
2023/01/22 09:51:22;;;;;;;20.40;12.60;;;;;;;-0.48;100.00;151249.09;4995759;28;20464;-83
2023/01/22 09:53:54;;;;;;;19.10;12.90;;;;;;;-0.48;100.00;151247.81;5003346;28;20553;-75
2023/01/22 09:56:22;;;;;;;19.50;12.33;;;;;;;-0.49;100.00;151246.53;4978182;28;20462;-74
2023/01/22 09:58:49;;;;;;;22.27;13.37;;;;;;;-0.52;100.00;151238.81;5003076;28;20476;-75
2023/01/22 10:01:17;;;;;;;18.13;13.03;;;;;;;-0.48;100.00;151249.09;4987948;28;20485;-75
2023/01/22 10:03:46;;;;;;;21.93;14.97;;;;;;;-0.47;100.00;151251.63;5035239;28;20451;-75
2023/01/22 10:06:17;;;;;;;22.97;13.40;;;;;;;-0.44;100.00;151258.03;5010884;28;20500;-75
2023/01/22 10:08:53;;;;;;;23.40;14.30;;;;;;;-0.41;100.00;151267.03;4961913;28;20501;-75
2023/01/22 10:11:19;;;;;;;21.00;12.57;;;;;;;-0.37;100.00;151276.03;4985777;28;20920;-75
2023/01/22 10:13:49;;;;;;;21.50;12.53;;;;;;;-0.36;100.00;151279.88;4980828;28;20456;-75
2023/01/22 10:16:16;;;;;;;22.00;13.77;;;;;;;-0.35;100.00;151282.44;4984757;28;20465;-74
2023/01/22 10:18:46;;;;;;;19.10;11.80;;;;;;;-0.35;100.00;151282.44;4987388;28;20572;-75
2023/01/22 10:21:18;;;;;;;20.93;13.83;;;;;;;-0.43;100.00;151261.94;4986156;28;22450;-75
2023/01/22 10:23:47;;;;;;;26.27;16.03;;;;;;;-0.44;100.00;151259.34;4985231;28;20803;-74
2023/01/22 10:26:17;;;;;;;19.87;13.43;;;;;;;-0.45;100.00;151256.75;4967479;28;20457;-74
2023/01/22 10:28:45;;;;;;;22.43;13.67;;;;;;;-0.44;100.00;151259.34;4985948;28;20883;-74
2023/01/22 10:31:23;;;;;;;23.53;14.17;;;;;;;-0.44;100.00;151259.34;4984093;28;20564;-74
2023/01/22 10:33:56;;;;;;;22.33;13.90;;;;;;;-0.47;100.00;151250.34;4983920;28;20448;-74
2023/01/22 10:36:24;;;;;;;25.17;13.87;;;;;;;-0.46;100.00;151252.94;4986674;28;20483;-75
2023/01/22 10:39:03;;;;;;;22.17;13.07;;;;;;;-0.37;100.00;151277.28;4984712;28;21073;-75
2023/01/22 10:41:30;;;;;;;22.87;14.37;;;;;;;-0.42;100.00;151264.47;4986098;28;20459;-75
2023/01/22 10:44:07;;;;;;;22.70;13.50;;;;;;;-0.30;100.00;151295.28;4981566;28;20480;-75
2023/01/22 10:46:34;;;;;;;23.50;15.00;;;;;;;-0.21;100.00;151318.34;4984628;28;20539;-75
2023/01/22 10:49:02;;;;;;;21.97;15.20;;;;;;;-0.22;100.00;151315.81;4985245;28;20456;-75
2023/01/22 10:51:32;;;;;;;29.13;15.57;;;;;;;-0.18;100.00;151324.75;4985293;28;20495;-75
2023/01/22 10:54:00;;;;;;;23.40;13.40;;;;;;;-0.21;100.00;151318.34;4985309;28;20478;-76
2023/01/22 10:56:30;;;;;;;18.23;12.17;;;;;;;-0.20;100.00;151320.91;4980101;28;20530;-76
2023/01/22 10:58:57;;;;;;;18.90;12.97;;;;;;;-0.15;100.00;151333.75;4983329;28;21144;-76
2023/01/22 11:01:28;;;;;;;25.07;14.77;;;;;;;-0.13;100.00;151338.88;4986383;28;20509;-76
2023/01/22 11:03:55;;;;;;;22.80;13.60;;;;;;;-0.11;100.00;151342.75;4986061;28;20480;-76
2023/01/22 11:06:24;;;;;;;19.93;12.37;;;;;;;-0.09;100.00;151349.16;4989597;28;20467;-76
2023/01/22 11:08:54;;;;;;;19.60;11.90;;;;;;;-0.08;100.00;151350.44;4986618;28;20547;-76
2023/01/22 11:11:25;;;;;;;20.10;12.80;;;;;;;-0.11;100.00;151344.00;4983323;28;20509;-76
2023/01/22 11:13:55;;;;;;;19.33;11.80;;;;;;;-0.08;100.00;151351.69;4987842;28;20894;-76
2023/01/22 11:16:23;;;;;;;20.27;13.73;;;;;;;-0.13;100.00;151337.56;4988922;28;20465;-76